Time;durP1;ratioP1;P1;durP2;ratioP2;P2;SDS_P1;SDS_P2;PMS_P1;PMS_P2;Temp;Humidity;BMP_temperature;BMP_pressure;BME280_temperature;BME280_humidity;BME280_pressure;Samples;Min_cycle;Max_cycle;Signal;HPM_P1;HPM_P2
2023/12/26 00:02:16;;;;;;;2.42;1.00;;;;;;;6.89;100.00;96982.00;5006357;28;20092;-62
2023/12/26 00:04:43;;;;;;;3.05;1.08;;;;;;;6.87;100.00;96978.75;5005317;28;20042;-62
2023/12/26 00:07:09;;;;;;;2.03;1.10;;;;;;;6.90;100.00;96978.25;5006751;28;20041;-62
2023/12/26 00:09:40;;;;;;;3.17;1.15;;;;;;;6.89;100.00;96979.31;5005717;28;20042;-60
2023/12/26 00:12:07;;;;;;;2.90;1.20;;;;;;;6.94;100.00;96969.72;5003569;28;20410;-62
2023/12/26 00:14:33;;;;;;;2.33;0.98;;;;;;;6.97;100.00;96970.03;4997872;28;20117;-63
2023/12/26 00:17:00;;;;;;;2.05;0.90;;;;;;;7.04;100.00;96972.59;5003226;28;20406;-60
2023/12/26 00:19:27;;;;;;;2.55;0.90;;;;;;;7.06;100.00;96965.13;5003357;28;20107;-62
2023/12/26 00:21:54;;;;;;;5.05;1.25;;;;;;;7.12;100.00;96966.03;5005382;28;20345;-62
2023/12/26 00:24:20;;;;;;;4.38;1.05;;;;;;;7.09;100.00;96959.25;5000192;28;20068;-61
2023/12/26 00:26:47;;;;;;;2.80;0.77;;;;;;;7.13;100.00;96964.97;5000856;28;20120;-63
2023/12/26 00:29:14;;;;;;;3.60;1.10;;;;;;;7.19;100.00;96960.50;5003412;28;20037;-62
2023/12/26 00:31:41;;;;;;;3.63;0.90;;;;;;;7.18;100.00;96962.38;5001721;28;20108;-61
2023/12/26 00:34:08;;;;;;;2.38;0.98;;;;;;;7.19;100.00;96964.00;5000361;28;20034;-62
2023/12/26 00:36:35;;;;;;;2.70;0.70;;;;;;;7.18;100.00;96961.56;4990259;28;20042;-59
2023/12/26 00:39:02;;;;;;;1.73;1.02;;;;;;;7.20;100.00;96951.38;4989603;28;20541;-61
2023/12/26 00:41:28;;;;;;;4.28;1.10;;;;;;;7.13;100.00;96955.03;5004940;28;20129;-61
2023/12/26 00:43:55;;;;;;;2.55;0.73;;;;;;;7.09;100.00;96951.19;4999097;28;20049;-60
2023/12/26 00:46:22;;;;;;;5.25;1.20;;;;;;;7.06;100.00;96954.34;5005530;28;20046;-62
2023/12/26 00:48:48;;;;;;;2.03;1.05;;;;;;;7.05;100.00;96952.72;5004449;28;20113;-60
2023/12/26 00:51:15;;;;;;;2.40;1.02;;;;;;;7.00;100.00;96955.28;5005668;28;20042;-61
2023/12/26 00:53:42;;;;;;;3.58;0.95;;;;;;;6.95;100.00;96957.88;5003581;28;20613;-62
2023/12/26 00:56:09;;;;;;;3.03;0.88;;;;;;;6.88;100.00;96958.84;4998416;28;20137;-60
2023/12/26 00:58:35;;;;;;;3.83;1.10;;;;;;;6.83;100.00;96960.63;5003018;28;20046;-61
2023/12/26 01:01:03;;;;;;;4.00;0.95;;;;;;;6.82;100.00;96967.88;5007466;28;20046;-60
2023/12/26 01:03:29;;;;;;;1.55;0.90;;;;;;;6.85;100.00;96970.09;5002505;28;20104;-61
2023/12/26 01:05:56;;;;;;;3.65;1.00;;;;;;;6.91;100.00;96971.00;5004774;28;20120;-62
2023/12/26 01:08:23;;;;;;;3.03;1.00;;;;;;;6.86;100.00;96966.34;5002580;28;20048;-60
2023/12/26 01:10:51;;;;;;;1.75;0.93;;;;;;;6.94;100.00;96980.47;5003894;28;20045;-61
2023/12/26 01:13:17;;;;;;;2.35;0.80;;;;;;;6.98;100.00;96981.66;5008047;28;20655;-62
2023/12/26 01:15:44;;;;;;;4.40;1.20;;;;;;;6.97;100.00;96988.09;5003615;28;20143;-61
2023/12/26 01:18:11;;;;;;;1.50;0.77;;;;;;;6.94;100.00;96991.25;5004733;28;20606;-62
2023/12/26 01:20:37;;;;;;;2.13;0.90;;;;;;;6.97;100.00;96991.59;5003525;28;20652;-61
2023/12/26 01:23:04;;;;;;;1.80;0.82;;;;;;;6.97;100.00;96991.59;5003808;28;20590;-61
2023/12/26 01:25:31;;;;;;;1.65;0.80;;;;;;;7.01;100.00;96994.63;5004355;28;20042;-62
2023/12/26 01:27:59;;;;;;;3.45;0.93;;;;;;;6.93;100.00;96995.81;4996733;28;20128;-61
2023/12/26 01:30:25;;;;;;;2.13;0.80;;;;;;;6.94;100.00;96994.78;5002607;28;20065;-61
2023/12/26 01:32:52;;;;;;;1.52;0.98;;;;;;;6.94;100.00;97005.53;4996820;28;20042;-62
2023/12/26 01:35:19;;;;;;;2.45;1.02;;;;;;;6.96;100.00;97005.31;5004341;28;20116;-60
2023/12/26 01:37:46;;;;;;;2.17;1.02;;;;;;;6.88;100.00;97006.47;5003295;28;20064;-60
2023/12/26 01:40:13;;;;;;;3.35;1.10;;;;;;;6.74;100.00;97009.41;5004542;28;20069;-62
2023/12/26 01:42:41;;;;;;;1.58;0.70;;;;;;;6.67;100.00;97021.38;4970254;28;20591;-60
2023/12/26 01:45:08;;;;;;;1.83;0.90;;;;;;;6.67;100.00;97021.38;4996939;28;20094;-61
2023/12/26 01:47:36;;;;;;;2.47;1.00;;;;;;;6.64;100.00;97025.34;5001704;28;20555;-61
2023/12/26 01:50:04;;;;;;;2.10;1.00;;;;;;;6.67;100.00;97029.44;5003323;28;20056;-61
2023/12/26 01:52:31;;;;;;;1.27;0.77;;;;;;;6.69;100.00;97027.31;5004070;28;20077;-62
2023/12/26 01:54:59;;;;;;;3.15;0.80;;;;;;;6.69;100.00;97028.16;5003489;28;20096;-61
2023/12/26 01:57:26;;;;;;;1.05;0.70;;;;;;;6.74;100.00;97035.50;5004527;28;20087;-61
2023/12/26 01:59:53;;;;;;;1.98;0.82;;;;;;;6.70;100.00;97043.22;5015462;28;20744;-61
2023/12/26 02:02:22;;;;;;;3.40;1.00;;;;;;;6.93;100.00;97035.38;5003863;28;20034;-60
2023/12/26 02:04:49;;;;;;;1.88;0.90;;;;;;;7.06;100.00;97037.81;5004456;28;20042;-62
2023/12/26 02:07:16;;;;;;;1.33;0.80;;;;;;;6.94;100.00;97029.75;5003984;28;20117;-60
2023/12/26 02:09:43;;;;;;;2.58;0.80;;;;;;;7.05;100.00;97029.97;4991784;28;20065;-61
2023/12/26 02:12:09;;;;;;;2.17;0.88;;;;;;;7.10;100.00;97038.13;4998425;28;20116;-62
2023/12/26 02:14:36;;;;;;;3.83;1.10;;;;;;;7.08;100.00;97034.88;5000241;28;20046;-60
2023/12/26 02:17:08;;;;;;;3.15;0.95;;;;;;;7.13;100.00;97034.97;5003042;28;20042;-61
2023/12/26 02:19:41;;;;;;;3.97;0.95;;;;;;;7.09;100.00;97047.28;5001477;28;20426;-61
2023/12/26 02:22:08;;;;;;;2.10;0.88;;;;;;;7.06;100.00;97037.81;5001930;28;20133;-60
2023/12/26 02:24:35;;;;;;;4.28;0.98;;;;;;;7.03;100.00;97033.72;5003646;28;20038;-61
2023/12/26 02:27:02;;;;;;;3.15;0.80;;;;;;;7.12;100.00;97038.72;5002515;28;20037;-61
2023/12/26 02:29:30;;;;;;;2.40;0.70;;;;;;;6.98;100.00;97033.63;5001011;28;20069;-61
2023/12/26 02:31:59;;;;;;;1.75;0.60;;;;;;;6.98;100.00;97038.16;5005407;28;20580;-61
2023/12/26 02:34:25;;;;;;;1.40;0.68;;;;;;;7.06;100.00;97040.50;5002644;28;20061;-62
2023/12/26 02:36:53;;;;;;;4.40;1.33;;;;;;;7.12;100.00;97033.34;5001211;28;20062;-60
2023/12/26 02:39:19;;;;;;;2.33;0.80;;;;;;;7.14;100.00;97031.22;5002073;28;20494;-60
2023/12/26 02:41:46;;;;;;;3.20;1.00;;;;;;;7.10;100.00;97038.13;5003119;28;20065;-61
2023/12/26 02:44:12;;;;;;;5.18;1.17;;;;;;;7.08;100.00;97035.69;4972785;28;20057;-59
2023/12/26 02:46:39;;;;;;;3.90;1.02;;;;;;;7.08;100.00;97037.56;4995371;28;20042;-62
2023/12/26 02:49:06;;;;;;;2.33;0.90;;;;;;;7.03;100.00;97032.88;4999792;28;20402;-61
2023/12/26 02:51:32;;;;;;;4.32;0.95;;;;;;;7.08;100.00;97038.38;4975481;28;20157;-60
2023/12/26 02:53:59;;;;;;;5.05;1.20;;;;;;;7.16;100.00;97037.19;4989069;28;20042;-60
2023/12/26 02:56:26;;;;;;;5.35;1.08;;;;;;;7.13;100.00;97043.06;5003940;28;20033;-60
2023/12/26 02:58:52;;;;;;;3.03;0.90;;;;;;;7.20;100.00;97046.44;4999343;28;20073;-62
2023/12/26 03:01:19;;;;;;;2.28;0.88;;;;;;;7.15;100.00;97035.56;5003940;28;20678;-61
2023/12/26 03:03:45;;;;;;;2.40;0.90;;;;;;;7.20;100.00;97035.66;4998485;28;20113;-62
2023/12/26 03:06:12;;;;;;;3.72;1.10;;;;;;;7.05;100.00;97029.97;5001574;28;20413;-61
2023/12/26 03:08:39;;;;;;;5.18;1.02;;;;;;;7.14;100.00;97029.34;4999205;28;20132;-62
2023/12/26 03:11:05;;;;;;;7.72;1.35;;;;;;;7.05;100.00;97038.03;5006127;28;20065;-62
2023/12/26 03:13:32;;;;;;;3.28;1.02;;;;;;;7.20;100.00;97043.75;5003343;28;20064;-62
2023/12/26 03:15:59;;;;;;;3.05;0.98;;;;;;;7.21;100.00;97039.16;5002235;28;20038;-62
2023/12/26 03:18:25;;;;;;;4.80;1.70;;;;;;;7.18;100.00;97039.66;5002789;28;20113;-60
2023/12/26 03:20:52;;;;;;;2.78;0.98;;;;;;;7.15;100.00;97030.19;5002096;28;20037;-62
2023/12/26 03:23:20;;;;;;;6.93;1.20;;;;;;;7.18;100.00;97032.38;4999747;28;20120;-62
2023/12/26 03:25:46;;;;;;;5.72;1.48;;;;;;;7.23;100.00;97019.00;5000560;28;20478;-62
2023/12/26 03:28:13;;;;;;;4.10;1.05;;;;;;;7.22;100.00;97043.53;5002787;28;20042;-62
2023/12/26 03:30:39;;;;;;;4.65;1.27;;;;;;;7.36;100.00;97044.88;5003012;28;20288;-62
2023/12/26 03:33:06;;;;;;;5.05;1.15;;;;;;;7.42;100.00;97035.81;5000731;28;20037;-63
2023/12/26 03:35:33;;;;;;;3.58;1.10;;;;;;;7.41;100.00;97031.50;5005115;28;20050;-62
2023/12/26 03:38:00;;;;;;;2.47;0.88;;;;;;;7.46;100.00;97033.47;5010509;28;20126;-62
2023/12/26 03:40:26;;;;;;;3.42;1.30;;;;;;;7.39;100.00;97035.50;5006409;28;20050;-62
2023/12/26 03:42:54;;;;;;;5.07;1.08;;;;;;;7.38;100.00;97031.97;5001479;28;20514;-60
2023/12/26 03:45:21;;;;;;;6.82;1.20;;;;;;;7.41;100.00;97047.66;4995598;28;20057;-60
2023/12/26 03:47:48;;;;;;;6.10;1.10;;;;;;;7.53;100.00;97039.53;4989072;28;20632;-61
2023/12/26 03:50:18;;;;;;;6.65;1.23;;;;;;;7.49;100.00;97038.38;5005829;28;20052;-61
2023/12/26 03:52:44;;;;;;;3.13;1.10;;;;;;;7.50;100.00;97044.59;4989320;28;20053;-60
2023/12/26 03:55:12;;;;;;;6.45;1.33;;;;;;;7.56;100.00;97035.56;4981493;28;20070;-60
2023/12/26 03:57:41;;;;;;;2.78;0.85;;;;;;;7.53;100.00;97042.22;5001255;28;20044;-61
2023/12/26 04:00:09;;;;;;;2.95;1.15;;;;;;;7.54;100.00;97035.78;5001034;28;20050;-60
2023/12/26 04:02:40;;;;;;;2.07;0.97;;;;;;;7.44;100.00;97038.28;5006277;28;20049;-61
2023/12/26 04:05:09;;;;;;;7.28;1.20;;;;;;;7.48;100.00;97038.63;5004235;28;20143;-62
2023/12/26 04:07:36;;;;;;;4.68;1.20;;;;;;;7.49;100.00;97037.56;5005150;28;20041;-60
2023/12/26 04:10:03;;;;;;;5.97;1.00;;;;;;;7.49;100.00;97029.47;5010914;28;20072;-61
2023/12/26 04:12:31;;;;;;;6.07;1.30;;;;;;;7.50;100.00;97036.50;5003948;28;20037;-59
2023/12/26 04:14:58;;;;;;;7.55;1.65;;;;;;;7.61;100.00;97027.56;5000381;28;20556;-61
2023/12/26 04:17:25;;;;;;;5.70;1.52;;;;;;;7.65;100.00;97054.84;4992841;28;20092;-61
2023/12/26 04:19:51;;;;;;;6.65;1.40;;;;;;;7.63;99.91;97025.44;5003440;28;20505;-61
2023/12/26 04:22:19;;;;;;;3.63;1.00;;;;;;;7.63;99.91;97020.03;5008430;28;20115;-62
2023/12/26 04:24:46;;;;;;;4.10;1.00;;;;;;;7.64;100.00;97024.38;5001774;28;20041;-59
2023/12/26 04:27:12;;;;;;;4.32;1.33;;;;;;;7.58;100.00;97028.03;5013105;28;20038;-62
2023/12/26 04:29:39;;;;;;;5.82;1.10;;;;;;;7.65;100.00;97022.50;5005532;28;20046;-63
2023/12/26 04:32:06;;;;;;;5.82;1.25;;;;;;;7.55;100.00;97025.81;5001591;28;20050;-62
2023/12/26 04:34:33;;;;;;;5.57;1.40;;;;;;;7.50;100.00;97037.31;5003228;28;20038;-61
2023/12/26 04:36:59;;;;;;;7.72;1.27;;;;;;;7.52;100.00;97045.97;5002960;28;20037;-63
2023/12/26 04:39:26;;;;;;;3.15;1.10;;;;;;;7.53;100.00;97044.09;5002197;28;20072;-60
2023/12/26 04:41:53;;;;;;;4.82;1.10;;;;;;;7.45;100.00;97045.31;5003416;28;20441;-63
2023/12/26 04:44:20;;;;;;;3.85;1.10;;;;;;;7.50;100.00;97058.06;5007877;28;20042;-63
2023/12/26 04:46:47;;;;;;;4.07;0.85;;;;;;;7.54;100.00;97062.72;5003412;28;20464;-60
2023/12/26 04:49:13;;;;;;;1.52;0.82;;;;;;;7.56;99.95;97073.28;5004067;28;20511;-62
2023/12/26 04:51:40;;;;;;;3.13;1.20;;;;;;;7.64;99.82;97056.72;5002153;28;20045;-60
2023/12/26 04:54:07;;;;;;;7.72;1.48;;;;;;;7.59;99.90;97078.16;5007921;28;20049;-62
2023/12/26 04:56:36;;;;;;;4.45;1.08;;;;;;;7.62;100.00;97077.69;4994954;28;20046;-61
2023/12/26 04:59:03;;;;;;;3.13;1.13;;;;;;;7.59;100.00;97070.06;4974087;28;20050;-62
2023/12/26 05:01:30;;;;;;;7.28;1.40;;;;;;;7.60;99.98;97042.09;5002825;28;20050;-60
2023/12/26 05:03:57;;;;;;;4.93;1.00;;;;;;;7.52;100.00;97051.38;5001461;28;20034;-62
2023/12/26 05:06:24;;;;;;;4.22;1.25;;;;;;;7.50;100.00;97063.44;5003915;28;20045;-62
2023/12/26 05:08:51;;;;;;;5.78;1.38;;;;;;;7.55;100.00;97074.31;5000727;28;20037;-61
2023/12/26 05:11:24;;;;;;;4.63;1.00;;;;;;;7.61;100.00;97086.00;4997255;28;20104;-62
2023/12/26 05:13:51;;;;;;;3.53;1.25;;;;;;;7.62;100.00;97075.00;5002467;28;20050;-62
2023/12/26 05:16:19;;;;;;;5.15;1.48;;;;;;;7.54;100.00;97073.50;5003378;28;20046;-63
2023/12/26 05:18:46;;;;;;;6.22;1.20;;;;;;;7.53;100.00;97077.25;5004173;28;20050;-61
2023/12/26 05:21:17;;;;;;;8.70;1.65;;;;;;;7.54;100.00;97065.44;5002376;28;20046;-61
2023/12/26 05:23:44;;;;;;;6.30;1.33;;;;;;;7.55;100.00;97050.06;5001517;28;20107;-61
2023/12/26 05:26:11;;;;;;;3.67;1.77;;;;;;;7.57;100.00;97091.06;5002354;28;20050;-61
2023/12/26 05:28:39;;;;;;;5.30;1.17;;;;;;;7.52;100.00;97061.34;5002569;28;20038;-61
2023/12/26 05:31:06;;;;;;;8.82;1.50;;;;;;;7.52;100.00;97066.72;4995927;28;20541;-61
2023/12/26 05:33:33;;;;;;;5.53;1.20;;;;;;;7.60;99.51;97070.91;5001075;28;20533;-60
2023/12/26 05:36:02;;;;;;;3.35;1.40;;;;;;;7.48;100.00;97068.25;5002564;28;20049;-61
2023/12/26 05:38:29;;;;;;;7.03;1.73;;;;;;;7.47;100.00;97072.00;5002204;28;20121;-61
2023/12/26 05:40:56;;;;;;;9.70;1.95;;;;;;;7.49;100.00;97069.91;5017046;28;20065;-61
2023/12/26 05:43:22;;;;;;;5.00;1.45;;;;;;;7.60;99.90;97073.59;4998581;28;20635;-61
2023/12/26 05:45:49;;;;;;;4.57;1.48;;;;;;;7.58;99.86;97081.09;4999144;28;20057;-62
2023/12/26 05:48:15;;;;;;;5.30;1.38;;;;;;;7.59;99.45;97077.38;5002730;28;20045;-62
2023/12/26 05:50:42;;;;;;;5.18;1.50;;;;;;;7.51;100.00;97075.84;5000854;28;20045;-62
2023/12/26 05:53:09;;;;;;;5.57;1.50;;;;;;;7.47;100.00;97080.06;5002839;28;20050;-61
2023/12/26 05:55:35;;;;;;;6.63;1.48;;;;;;;7.51;100.00;97083.94;5002243;28;20157;-61
2023/12/26 05:58:03;;;;;;;7.20;1.67;;;;;;;7.48;100.00;97081.72;5000264;28;20060;-60
2023/12/26 06:00:30;;;;;;;7.38;1.60;;;;;;;7.49;99.94;97086.06;4984036;28;20111;-62
2023/12/26 06:02:57;;;;;;;5.43;1.40;;;;;;;7.54;99.38;97088.84;5000002;28;20137;-63
2023/12/26 06:05:24;;;;;;;4.13;1.27;;;;;;;7.46;99.71;97086.53;5004552;28;20038;-61
2023/12/26 06:07:51;;;;;;;4.85;1.20;;;;;;;7.47;99.59;97089.00;5001989;28;20473;-62
2023/12/26 06:10:18;;;;;;;6.85;1.35;;;;;;;7.50;99.33;97091.22;5004135;28;20664;-61
2023/12/26 06:12:45;;;;;;;7.80;1.60;;;;;;;7.47;99.51;97082.78;5002525;28;20438;-62
2023/12/26 06:15:12;;;;;;;6.90;1.45;;;;;;;7.45;99.97;97098.38;5005393;28;20070;-62
2023/12/26 06:17:39;;;;;;;6.40;1.25;;;;;;;7.42;99.52;97086.19;5001461;28;20030;-62
2023/12/26 06:20:06;;;;;;;7.07;1.40;;;;;;;7.40;100.00;97094.50;5001971;28;20320;-60
2023/12/26 06:22:33;;;;;;;7.40;1.50;;;;;;;7.47;99.87;97090.84;5002875;28;20042;-61
2023/12/26 06:25:00;;;;;;;3.97;1.58;;;;;;;7.45;99.73;97107.28;5001838;28;20057;-61
2023/12/26 06:27:26;;;;;;;4.35;1.02;;;;;;;7.42;99.67;97105.06;5003032;28;20249;-63
2023/12/26 06:29:53;;;;;;;2.50;1.50;;;;;;;7.45;99.37;97104.59;5001831;28;20552;-62
2023/12/26 06:32:19;;;;;;;7.97;1.75;;;;;;;7.54;98.64;97096.94;5004359;28;20038;-63
2023/12/26 06:34:46;;;;;;;3.72;1.45;;;;;;;7.53;98.44;97103.38;5000165;28;20046;-60
2023/12/26 06:37:14;;;;;;;5.68;1.52;;;;;;;7.43;99.16;97101.28;5012919;28;20040;-61
2023/12/26 06:39:42;;;;;;;2.33;1.00;;;;;;;7.38;99.60;97102.00;5003044;28;20053;-62
2023/12/26 06:42:11;;;;;;;4.57;1.00;;;;;;;7.47;99.23;97104.31;5002262;28;20655;-63
2023/12/26 06:44:37;;;;;;;6.47;0.95;;;;;;;7.51;99.17;97100.09;5000062;28;20045;-60
2023/12/26 06:47:04;;;;;;;5.82;1.33;;;;;;;7.43;99.25;97095.91;5003768;28;20517;-63
2023/12/26 06:49:31;;;;;;;7.13;1.63;;;;;;;7.39;99.94;97100.13;5003847;28;20112;-62
2023/12/26 06:51:59;;;;;;;4.32;1.02;;;;;;;7.40;99.73;97099.91;5001736;28;20038;-62
2023/12/26 06:54:26;;;;;;;7.15;1.13;;;;;;;7.45;99.68;97101.06;4998539;28;20053;-61
2023/12/26 06:56:53;;;;;;;5.70;1.42;;;;;;;7.49;99.21;97102.22;5000305;28;20050;-61
2023/12/26 06:59:20;;;;;;;8.38;1.25;;;;;;;7.42;99.69;97122.00;5002049;28;20424;-61
2023/12/26 07:01:46;;;;;;;7.78;1.60;;;;;;;7.43;99.42;97122.84;5002059;28;20111;-60
2023/12/26 07:04:13;;;;;;;5.35;1.38;;;;;;;7.45;99.24;97136.09;5002412;28;20095;-60
2023/12/26 07:06:40;;;;;;;7.45;1.90;;;;;;;7.42;99.56;97121.22;5003286;28;20552;-62
2023/12/26 07:09:07;;;;;;;3.95;1.13;;;;;;;7.45;99.40;97131.53;5007947;28;20046;-61
2023/12/26 07:11:33;;;;;;;3.08;1.02;;;;;;;7.41;99.49;97133.84;5007519;28;20042;-63
2023/12/26 07:14:00;;;;;;;5.78;1.17;;;;;;;7.34;100.00;97133.16;5005602;28;20088;-62
2023/12/26 07:16:27;;;;;;;3.47;0.90;;;;;;;7.36;100.00;97139.13;4982527;28;20129;-62
2023/12/26 07:18:53;;;;;;;5.97;1.33;;;;;;;7.25;100.00;97143.50;5005219;28;20509;-61
2023/12/26 07:21:21;;;;;;;7.50;1.40;;;;;;;7.26;100.00;97145.13;5003064;28;20072;-62
2023/12/26 07:23:47;;;;;;;4.88;1.23;;;;;;;7.43;99.73;97152.47;5008136;28;20041;-62
2023/12/26 07:26:15;;;;;;;4.47;1.25;;;;;;;7.52;99.45;97161.81;5007719;28;20046;-61
2023/12/26 07:28:41;;;;;;;6.70;1.08;;;;;;;7.34;100.00;97160.09;5007372;28;20632;-62
2023/12/26 07:31:08;;;;;;;6.15;1.73;;;;;;;7.21;100.00;97163.88;5007542;28;20104;-63
2023/12/26 07:33:35;;;;;;;5.05;1.38;;;;;;;7.14;100.00;97168.53;5006191;28;20511;-61
2023/12/26 07:36:09;;;;;;;5.05;1.10;;;;;;;7.15;100.00;97171.00;5005576;28;20594;-61
2023/12/26 07:38:36;;;;;;;4.55;1.08;;;;;;;7.12;100.00;97171.47;5004747;28;20298;-62
2023/12/26 07:41:03;;;;;;;5.47;1.42;;;;;;;7.24;100.00;97178.72;5004912;28;20046;-61
2023/12/26 07:43:30;;;;;;;7.97;1.40;;;;;;;7.30;100.00;97188.56;5006147;28;20045;-60
2023/12/26 07:45:56;;;;;;;5.15;1.33;;;;;;;7.28;100.00;97185.28;5004327;28;20041;-63
2023/12/26 07:48:23;;;;;;;4.80;1.30;;;;;;;7.28;100.00;97193.38;5005701;28;20038;-62
2023/12/26 07:50:50;;;;;;;9.13;1.73;;;;;;;7.22;100.00;97191.63;5004486;28;20514;-62
2023/12/26 07:53:16;;;;;;;5.13;1.13;;;;;;;7.21;100.00;97193.50;5006038;28;20654;-63
2023/12/26 07:55:43;;;;;;;2.70;0.82;;;;;;;7.29;100.00;97203.06;5004943;28;20069;-62
2023/12/26 07:58:10;;;;;;;3.35;1.00;;;;;;;7.35;100.00;97206.72;5005201;28;20038;-61
2023/12/26 08:00:36;;;;;;;6.13;1.20;;;;;;;7.30;100.00;97210.13;5004897;28;20046;-62
2023/12/26 08:03:03;;;;;;;8.60;1.33;;;;;;;7.26;100.00;97212.44;5005371;28;20106;-63
2023/12/26 08:05:29;;;;;;;5.30;1.27;;;;;;;7.28;100.00;97220.28;5005776;28;20432;-63
2023/12/26 08:07:56;;;;;;;4.38;1.10;;;;;;;7.33;100.00;97214.22;5004297;28;20069;-62
2023/12/26 08:10:26;;;;;;;3.70;1.05;;;;;;;7.32;100.00;97224.16;5004558;28;20065;-63
2023/12/26 08:12:52;;;;;;;4.07;1.13;;;;;;;7.37;100.00;97235.03;5004358;28;20092;-63
2023/12/26 08:15:19;;;;;;;4.13;1.52;;;;;;;7.47;100.00;97230.94;5002953;28;20038;-63
2023/12/26 08:17:46;;;;;;;5.40;1.35;;;;;;;7.55;100.00;97234.09;5003850;28;20046;-63
2023/12/26 08:20:13;;;;;;;3.78;1.50;;;;;;;7.43;100.00;97241.38;5003976;28;20049;-61
2023/12/26 08:22:40;;;;;;;4.70;1.10;;;;;;;7.41;100.00;97238.91;5004828;28;20412;-63
2023/12/26 08:25:08;;;;;;;6.63;1.95;;;;;;;7.36;100.00;97236.09;5006868;28;20053;-61
2023/12/26 08:27:36;;;;;;;4.47;1.27;;;;;;;7.37;100.00;97235.03;5005133;28;20041;-60
2023/12/26 08:30:04;;;;;;;4.63;1.40;;;;;;;7.50;100.00;97242.09;5002182;28;20503;-63
2023/12/26 08:32:30;;;;;;;6.20;1.65;;;;;;;7.48;100.00;97244.19;5005022;28;20599;-61
2023/12/26 08:34:59;;;;;;;2.90;1.00;;;;;;;7.44;100.00;97245.69;5003483;28;20041;-63
2023/12/26 08:37:27;;;;;;;3.28;1.63;;;;;;;7.58;100.00;97257.06;5004600;28;20571;-60
2023/12/26 08:39:53;;;;;;;4.22;1.63;;;;;;;7.63;100.00;97257.16;5003599;28;20053;-63
2023/12/26 08:42:20;;;;;;;4.72;1.73;;;;;;;7.58;100.00;97250.84;5004120;28;20042;-45
2023/12/26 08:44:47;;;;;;;5.80;1.40;;;;;;;7.52;100.00;97261.50;5002832;28;20042;-53
2023/12/26 08:47:13;;;;;;;5.97;1.77;;;;;;;7.50;100.00;97268.19;5003307;28;20139;-46
2023/12/26 08:49:40;;;;;;;5.28;1.25;;;;;;;7.46;100.00;97269.72;5002659;28;20057;-49
2023/12/26 08:52:08;;;;;;;2.17;0.80;;;;;;;7.57;100.00;97268.06;5003215;28;20580;-60
2023/12/26 08:54:35;;;;;;;4.63;1.10;;;;;;;7.49;100.00;97270.06;5003141;28;20594;-60
2023/12/26 08:57:02;;;;;;;3.20;1.10;;;;;;;7.50;100.00;97266.34;5001369;28;20501;-64
2023/12/26 08:59:28;;;;;;;4.85;1.40;;;;;;;7.49;100.00;97269.25;5007062;28;20069;-62
2023/12/26 09:01:55;;;;;;;3.97;0.95;;;;;;;7.55;100.00;97279.09;5006673;28;20101;-63
2023/12/26 09:04:26;;;;;;;5.57;1.15;;;;;;;7.50;100.00;97276.28;5006774;28;20072;-63
2023/12/26 09:06:53;;;;;;;5.75;1.20;;;;;;;7.50;100.00;97297.84;5002941;28;20044;-63
2023/12/26 09:09:20;;;;;;;5.18;1.00;;;;;;;7.54;100.00;97289.06;5004314;28;20034;-63
2023/12/26 09:11:47;;;;;;;4.03;1.00;;;;;;;7.67;100.00;97292.56;5006831;28;20825;-62
2023/12/26 09:14:13;;;;;;;4.53;1.30;;;;;;;7.45;100.00;97293.16;5006029;28;20042;-62
2023/12/26 09:16:40;;;;;;;5.78;1.15;;;;;;;7.56;100.00;97305.00;5006741;28;20045;-63
2023/12/26 09:19:07;;;;;;;6.25;1.63;;;;;;;7.57;100.00;97301.25;5005923;28;20690;-64
2023/12/26 09:21:34;;;;;;;4.18;1.13;;;;;;;7.63;100.00;97312.97;5005882;28;20061;-61
2023/12/26 09:24:00;;;;;;;4.72;1.67;;;;;;;7.44;100.00;97304.97;5005068;28;20383;-61
2023/12/26 09:26:27;;;;;;;4.90;1.40;;;;;;;7.44;100.00;97306.84;5004945;28;20067;-63
2023/12/26 09:28:54;;;;;;;3.78;1.08;;;;;;;7.57;100.00;97311.19;5003642;28;20281;-63
2023/12/26 09:31:21;;;;;;;7.13;1.13;;;;;;;7.70;100.00;97315.53;5005105;28;20076;-63
2023/12/26 09:33:48;;;;;;;4.32;1.13;;;;;;;7.66;100.00;97321.38;5005552;28;20042;-63
2023/12/26 09:36:15;;;;;;;3.15;0.73;;;;;;;7.65;100.00;97330.53;5004997;28;20073;-63
2023/12/26 09:38:42;;;;;;;3.33;0.93;;;;;;;7.66;100.00;97328.63;5004302;28;20033;-63
2023/12/26 09:41:12;;;;;;;5.07;0.90;;;;;;;7.62;100.00;97328.28;5005434;28;20057;-61
2023/12/26 09:43:40;;;;;;;2.40;0.80;;;;;;;7.68;100.00;97332.72;5006890;28;20048;-62
2023/12/26 09:46:07;;;;;;;7.03;1.27;;;;;;;7.61;100.00;97329.34;5003731;28;20056;-62
2023/12/26 09:48:34;;;;;;;4.60;0.82;;;;;;;7.58;100.00;97331.69;5005475;28;20318;-62
2023/12/26 09:51:07;;;;;;;2.65;0.90;;;;;;;7.59;100.00;97341.44;5004163;28;20100;-60
2023/12/26 09:53:34;;;;;;;4.13;1.00;;;;;;;7.65;100.00;97351.25;5001408;28;20073;-62
2023/12/26 09:56:01;;;;;;;3.03;0.85;;;;;;;7.66;100.00;97361.81;5004310;28;20045;-63
2023/12/26 09:58:29;;;;;;;3.47;0.90;;;;;;;7.64;100.00;97349.63;5003613;28;20038;-61
2023/12/26 10:00:57;;;;;;;4.45;1.00;;;;;;;7.71;100.00;97355.72;5002684;28;20077;-63
2023/12/26 10:03:24;;;;;;;3.95;0.85;;;;;;;7.72;100.00;97360.06;5008727;28;20104;-61
2023/12/26 10:05:57;;;;;;;3.85;0.70;;;;;;;7.81;100.00;97366.75;5008087;28;20069;-62
2023/12/26 10:08:24;;;;;;;2.60;0.90;;;;;;;7.81;100.00;97368.59;5009684;28;20037;-63
2023/12/26 10:10:51;;;;;;;3.92;0.60;;;;;;;7.83;100.00;97376.47;5008700;28;20072;-61
2023/12/26 10:13:17;;;;;;;1.98;0.75;;;;;;;7.83;100.00;97382.69;5006368;28;20431;-67
2023/12/26 10:15:44;;;;;;;4.88;0.70;;;;;;;7.89;100.00;97380.94;5001418;28;20605;-63
2023/12/26 10:18:10;;;;;;;2.40;0.60;;;;;;;8.06;100.00;97372.94;5001805;28;20052;-64
2023/12/26 10:20:37;;;;;;;1.98;0.68;;;;;;;8.10;100.00;97376.00;5000974;28;20108;-63
2023/12/26 10:23:04;;;;;;;1.38;0.57;;;;;;;8.12;100.00;97366.63;5000292;28;20045;-63
2023/12/26 10:25:31;;;;;;;2.38;0.88;;;;;;;7.94;100.00;97357.59;5005052;28;20034;-61
2023/12/26 10:28:00;;;;;;;1.75;0.77;;;;;;;7.94;100.00;97367.56;5012699;28;20575;-61
2023/12/26 10:30:27;;;;;;;2.15;0.65;;;;;;;8.02;100.00;97364.50;5011951;28;20784;-62
2023/12/26 10:33:01;;;;;;;1.73;0.75;;;;;;;8.05;100.00;97364.06;5006962;28;20060;-66
2023/12/26 10:35:30;;;;;;;1.58;0.40;;;;;;;7.98;100.00;97349.03;5009031;28;20038;-64
2023/12/26 10:37:57;;;;;;;2.63;0.75;;;;;;;7.98;100.00;97349.03;5007632;28;20468;-65
2023/12/26 10:40:25;;;;;;;1.85;0.52;;;;;;;8.05;100.00;97360.53;5002355;28;20104;-65
2023/12/26 10:42:51;;;;;;;2.47;0.75;;;;;;;8.13;100.00;97376.34;5009382;28;20486;-60
2023/12/26 10:45:19;;;;;;;1.05;0.47;;;;;;;8.11;100.00;97370.34;5002049;28;20417;-65
2023/12/26 10:47:49;;;;;;;2.05;0.90;;;;;;;8.25;100.00;97372.81;5007501;28;20034;-65
2023/12/26 10:50:18;;;;;;;2.28;0.50;;;;;;;8.38;100.00;97377.97;5014036;28;20038;-62
2023/12/26 10:53:10;;;;;;;3.88;0.60;;;;;;;8.50;100.00;97388.72;5013817;28;20045;-63
2023/12/26 10:55:37;;;;;;;1.13;0.40;;;;;;;8.59;100.00;97392.72;5009964;28;20042;-65
2023/12/26 10:58:23;;;;;;;1.35;0.40;;;;;;;8.73;100.00;97395.13;5013357;28;20089;-65
2023/12/26 13:51:25;;;;;;;0.65;0.30;;;;;;;8.43;100.00;97429.31;4999502;28;20048;-64
2023/12/26 13:53:52;;;;;;;1.45;0.40;;;;;;;8.37;100.00;97424.06;5001859;28;20048;-63
2023/12/26 13:56:19;;;;;;;0.73;0.30;;;;;;;8.42;100.00;97427.69;4997994;28;20058;-65
2023/12/26 13:58:46;;;;;;;0.70;0.40;;;;;;;8.39;100.00;97419.22;5003709;28;20677;-64
2023/12/26 14:01:18;;;;;;;0.77;0.30;;;;;;;8.41;100.00;97431.44;5003316;28;20131;-65
2023/12/26 14:03:49;;;;;;;1.70;0.40;;;;;;;8.38;100.00;97445.41;5004932;28;20476;-62
2023/12/26 14:06:20;;;;;;;;;;;;;;;8.43;100.00;97441.97;5005566;28;20174;-65
2023/12/26 14:08:51;;;;;;;0.28;0.28;;;;;;;8.47;100.00;97437.75;5004731;28;19929;-65
2023/12/26 14:11:19;;;;;;;0.52;0.40;;;;;;;8.37;100.00;97442.94;5004174;28;20436;-65
2023/12/26 14:13:46;;;;;;;0.82;0.40;;;;;;;8.29;100.00;97463.00;5004703;28;20073;-65
2023/12/26 14:16:13;;;;;;;1.30;0.43;;;;;;;8.16;100.00;97462.19;5004825;28;20074;-65
2023/12/26 14:18:41;;;;;;;1.95;1.20;;;;;;;8.24;100.00;97460.19;5002847;28;20049;-65
2023/12/26 14:21:09;;;;;;;0.90;0.43;;;;;;;8.39;100.00;97457.84;5003884;28;20073;-65
2023/12/26 14:23:35;;;;;;;1.40;0.40;;;;;;;8.33;100.00;97465.00;5005165;28;20655;-64
2023/12/26 14:26:02;;;;;;;1.58;0.65;;;;;;;8.37;100.00;97473.44;5003463;28;20120;-64